Terminal Aerodrome Forecast
Issued by NWS

Home | Current Version | Previous Version | Text Only | Print | Product List | Glossary On
Versions: 1 2 3 4 5 6 7 8 9 10 11 12 13 14 15 16
000
FTUS45 KBOU 020521
TAFAPA
TAF
KAPA 020521Z 0206/0306 20005KT P6SM SCT040 BKN120 BKN220
     FM021000 20007KT P6SM VCFG FEW010 SCT220
     FM021500 VRB05KT P6SM FEW080 SCT220
     FM022000 10006KT P6SM SCT090 SCT220
     FM030300 19008KT P6SM FEW100 SCT220=

USA.gov is the U.S. government's official web portal to all federal, state and local government web resources and services.